Time;durP1;ratioP1;P1;durP2;ratioP2;P2;SDS_P1;SDS_P2;PMS_P1;PMS_P2;Temp;Humidity;BMP_temperature;BMP_pressure;BME280_temperature;BME280_humidity;BME280_pressure;Samples;Min_cycle;Max_cycle;Signal;HPM_P1;HPM_P2
2023/05/20 00:01:23;;;;;;;7.40;6.70;;;;;;;;;;6266125;28;20210;-60
2023/05/20 00:04:24;;;;;;;6.23;5.63;;;;;;;;;;6267866;28;20212;-60
2023/05/20 00:07:25;;;;;;;5.90;5.40;;;;;;;;;;6251613;28;20242;-61
2023/05/20 00:10:26;;;;;;;6.27;5.60;;;;;;;;;;6261052;28;20196;-60
2023/05/20 00:13:28;;;;;;;6.90;6.30;;;;;;;;;;6277137;28;20197;-60
2023/05/20 00:16:29;;;;;;;7.83;6.37;;;;;;;;;;6275564;28;20204;-60
2023/05/20 00:19:30;;;;;;;5.53;4.97;;;;;;;;;;6267676;28;20287;-60
2023/05/20 00:22:31;;;;;;;7.50;5.93;;;;;;;;;;6260619;28;20186;-60
2023/05/20 00:25:32;;;;;;;7.10;5.50;;;;;;;;;;6284475;28;20207;-60
2023/05/20 00:28:33;;;;;;;5.50;5.00;;;;;;;;;;6270024;28;20201;-60
2023/05/20 00:31:34;;;;;;;6.30;5.70;;;;;;;;;;6271603;28;20199;-60
2023/05/20 00:34:35;;;;;;;6.90;5.73;;;;;;;;;;6260915;28;20215;-60
2023/05/20 00:37:36;;;;;;;5.87;5.33;;;;;;;;;;6270870;28;20202;-60
2023/05/20 00:40:37;;;;;;;5.77;5.27;;;;;;;;;;6271408;28;20221;-60
2023/05/20 00:43:38;;;;;;;6.20;5.70;;;;;;;;;;6278984;28;20193;-60
2023/05/20 00:46:39;;;;;;;6.20;5.60;;;;;;;;;;6266464;28;20190;-60
2023/05/20 00:49:40;;;;;;;6.13;5.63;;;;;;;;;;6265543;28;20236;-60
2023/05/20 00:52:44;;;;;;;7.47;6.63;;;;;;;;;;6259057;28;20197;-60
2023/05/20 00:55:45;;;;;;;7.00;6.30;;;;;;;;;;6265637;28;20221;-60
2023/05/20 00:58:46;;;;;;;6.20;5.67;;;;;;;;;;6296052;28;20189;-60
2023/05/20 01:01:47;;;;;;;6.67;6.00;;;;;;;;;;6256553;28;20193;-60
2023/05/20 01:04:48;;;;;;;6.23;5.63;;;;;;;;;;6251459;28;20219;-60
2023/05/20 01:07:50;;;;;;;5.87;5.37;;;;;;;;;;6291946;28;20194;-60
2023/05/20 01:11:08;;;;;;;6.13;5.60;;;;;;;;;;6281872;28;20184;-60
2023/05/20 01:14:10;;;;;;;6.27;5.77;;;;;;;;;;6277235;28;20190;-60
2023/05/20 01:17:12;;;;;;;7.37;6.37;;;;;;;;;;6283319;28;20182;-60
2023/05/20 01:20:14;;;;;;;6.37;5.77;;;;;;;;;;6250195;28;20190;-60
2023/05/20 01:23:16;;;;;;;5.47;4.97;;;;;;;;;;6267496;28;20189;-60
2023/05/20 01:26:17;;;;;;;6.13;5.53;;;;;;;;;;6291774;28;20194;-60
2023/05/20 01:29:18;;;;;;;6.30;5.70;;;;;;;;;;6283519;28;20197;-60
2023/05/20 01:32:25;;;;;;;6.43;5.47;;;;;;;;;;6271375;28;20191;-60
2023/05/20 01:35:27;;;;;;;8.00;6.00;;;;;;;;;;6277984;28;20252;-60
2023/05/20 01:38:28;;;;;;;6.23;5.63;;;;;;;;;;6261258;28;20241;-59
2023/05/20 01:41:30;;;;;;;8.13;7.07;;;;;;;;;;6279646;28;20189;-60
2023/05/20 01:44:32;;;;;;;7.43;6.70;;;;;;;;;;6264168;28;20216;-60
2023/05/20 01:47:33;;;;;;;7.67;6.80;;;;;;;;;;6288391;28;20197;-60
2023/05/20 01:50:34;;;;;;;8.13;7.33;;;;;;;;;;6267807;28;20201;-60
2023/05/20 01:53:35;;;;;;;8.90;7.30;;;;;;;;;;6301079;28;20200;-60
2023/05/20 01:56:36;;;;;;;7.73;7.03;;;;;;;;;;6265666;28;20213;-60
2023/05/20 01:59:38;;;;;;;6.97;6.37;;;;;;;;;;6267288;28;20201;-60
2023/05/20 02:02:39;;;;;;;8.53;7.27;;;;;;;;;;6258610;28;20281;-60
2023/05/20 02:05:40;;;;;;;7.67;6.87;;;;;;;;;;6258484;28;20303;-60
2023/05/20 02:08:41;;;;;;;8.23;7.43;;;;;;;;;;6260941;28;20194;-60
2023/05/20 02:11:42;;;;;;;7.23;6.60;;;;;;;;;;6266390;28;20193;-59
2023/05/20 02:14:44;;;;;;;8.13;7.33;;;;;;;;;;6259752;28;20204;-60
2023/05/20 02:17:46;;;;;;;7.63;6.83;;;;;;;;;;6292221;28;20191;-60
2023/05/20 02:20:47;;;;;;;8.50;7.57;;;;;;;;;;6271202;28;20190;-59
2023/05/20 02:23:48;;;;;;;9.17;8.37;;;;;;;;;;6271288;28;20242;-60
2023/05/20 02:26:50;;;;;;;7.87;7.07;;;;;;;;;;6262129;28;20205;-60
2023/05/20 02:29:51;;;;;;;7.33;6.50;;;;;;;;;;6264820;28;20280;-60
2023/05/20 02:32:52;;;;;;;8.93;8.13;;;;;;;;;;6263377;28;20199;-60
2023/05/20 02:35:53;;;;;;;8.33;7.53;;;;;;;;;;6255351;28;20213;-60
2023/05/20 02:38:55;;;;;;;8.27;7.50;;;;;;;;;;6290949;28;20295;-60
2023/05/20 02:41:56;;;;;;;8.77;7.93;;;;;;;;;;6264980;28;20216;-60
2023/05/20 02:44:57;;;;;;;9.77;7.37;;;;;;;;;;6270628;28;20196;-60
2023/05/20 02:47:58;;;;;;;8.53;7.83;;;;;;;;;;6260691;28;20353;-60
2023/05/20 02:50:59;;;;;;;8.03;7.33;;;;;;;;;;6265016;28;20208;-60
2023/05/20 02:54:00;;;;;;;7.77;7.03;;;;;;;;;;6264574;28;20216;-59
2023/05/20 02:57:02;;;;;;;7.60;6.90;;;;;;;;;;6258394;28;20238;-60
2023/05/20 03:00:09;;;;;;;7.90;7.10;;;;;;;;;;6290449;28;20213;-60
2023/05/20 03:03:12;;;;;;;6.60;5.90;;;;;;;;;;6300478;28;20239;-60
2023/05/20 03:06:13;;;;;;;6.23;5.63;;;;;;;;;;6261829;28;20189;-60
2023/05/20 03:09:14;;;;;;;7.27;6.60;;;;;;;;;;6263475;28;20224;-61
2023/05/20 03:12:15;;;;;;;7.20;6.50;;;;;;;;;;6276691;28;20198;-61
2023/05/20 03:15:16;;;;;;;6.67;5.93;;;;;;;;;;6276051;28;20211;-61
2023/05/20 03:18:17;;;;;;;7.20;6.50;;;;;;;;;;6274886;28;20184;-61
2023/05/20 03:21:18;;;;;;;7.03;6.43;;;;;;;;;;6259478;28;20224;-61
2023/05/20 03:24:22;;;;;;;6.63;6.03;;;;;;;;;;6265886;28;20263;-61
2023/05/20 03:27:25;;;;;;;6.67;6.07;;;;;;;;;;6262457;28;20199;-61
2023/05/20 03:30:26;;;;;;;6.40;5.87;;;;;;;;;;6264268;28;20217;-60
2023/05/20 03:33:27;;;;;;;6.93;6.33;;;;;;;;;;6286266;28;20196;-60
2023/05/20 03:36:28;;;;;;;8.40;7.60;;;;;;;;;;6269000;28;20220;-60
2023/05/20 03:39:30;;;;;;;6.97;6.23;;;;;;;;;;6260083;28;20240;-60
2023/05/20 03:42:31;;;;;;;10.07;6.97;;;;;;;;;;6279645;28;20198;-60
2023/05/20 03:45:33;;;;;;;7.03;6.43;;;;;;;;;;6274959;28;20221;-60
2023/05/20 03:48:34;;;;;;;6.77;6.17;;;;;;;;;;6278707;28;20281;-60
2023/05/20 03:51:35;;;;;;;6.17;5.63;;;;;;;;;;6305158;28;20198;-60
2023/05/20 03:54:36;;;;;;;7.87;6.67;;;;;;;;;;6294517;28;20215;-60
2023/05/20 03:57:37;;;;;;;8.40;6.93;;;;;;;;;;6265328;28;20223;-60
2023/05/20 04:00:38;;;;;;;6.77;5.97;;;;;;;;;;6263395;28;20194;-61
2023/05/20 04:03:42;;;;;;;7.07;6.47;;;;;;;;;;6292727;28;20196;-60
2023/05/20 04:06:43;;;;;;;7.20;6.60;;;;;;;;;;6268556;28;20196;-60
2023/05/20 04:09:45;;;;;;;6.40;5.83;;;;;;;;;;6266558;28;20198;-60
2023/05/20 04:12:46;;;;;;;7.23;6.33;;;;;;;;;;6272903;28;20221;-60
2023/05/20 04:15:47;;;;;;;6.77;6.17;;;;;;;;;;6258507;28;20236;-60
2023/05/20 04:18:49;;;;;;;6.63;6.03;;;;;;;;;;6290416;28;20241;-60
2023/05/20 04:21:50;;;;;;;7.20;6.50;;;;;;;;;;6272832;28;20201;-60
2023/05/20 04:24:51;;;;;;;6.63;6.10;;;;;;;;;;6293367;28;20199;-61
2023/05/20 04:27:56;;;;;;;6.20;5.60;;;;;;;;;;6263358;28;20193;-60
2023/05/20 04:31:03;;;;;;;6.60;6.00;;;;;;;;;;6260006;28;20195;-60
2023/05/20 04:34:04;;;;;;;6.30;5.70;;;;;;;;;;6273359;28;20193;-60
2023/05/20 04:37:08;;;;;;;7.57;6.80;;;;;;;;;;6263244;28;20228;-59
2023/05/20 04:40:11;;;;;;;7.07;6.47;;;;;;;;;;6259281;28;20246;-60
2023/05/20 04:43:13;;;;;;;7.20;6.50;;;;;;;;;;6287572;28;20182;-60
2023/05/20 04:46:15;;;;;;;7.83;6.70;;;;;;;;;;6260059;28;20193;-60
2023/05/20 04:49:16;;;;;;;7.13;6.00;;;;;;;;;;6286924;28;20190;-60
2023/05/20 04:52:18;;;;;;;7.97;7.17;;;;;;;;;;6269305;28;20201;-60
2023/05/20 04:55:20;;;;;;;8.13;6.47;;;;;;;;;;6269647;28;20205;-60
2023/05/20 04:58:23;;;;;;;7.27;6.57;;;;;;;;;;6260382;28;20205;-60
2023/05/20 05:01:24;;;;;;;7.20;6.50;;;;;;;;;;6279312;28;20193;-60
2023/05/20 05:04:25;;;;;;;8.10;6.37;;;;;;;;;;6255280;28;20190;-60
2023/05/20 05:07:26;;;;;;;6.30;5.77;;;;;;;;;;6263529;28;20202;-60
2023/05/20 05:10:27;;;;;;;6.60;5.90;;;;;;;;;;6278995;28;20185;-60
2023/05/20 05:13:28;;;;;;;6.53;5.80;;;;;;;;;;6273452;28;20374;-60
2023/05/20 05:16:29;;;;;;;6.20;5.60;;;;;;;;;;6267287;28;21326;-60
2023/05/20 05:19:30;;;;;;;6.57;5.93;;;;;;;;;;6263892;28;20215;-61
2023/05/20 05:22:31;;;;;;;6.50;5.90;;;;;;;;;;6279477;28;20193;-60
2023/05/20 05:25:32;;;;;;;6.07;5.57;;;;;;;;;;6290078;28;20284;-61
2023/05/20 05:28:33;;;;;;;6.37;5.63;;;;;;;;;;6262029;28;20197;-60
2023/05/20 05:31:34;;;;;;;6.13;5.63;;;;;;;;;;6273648;28;20196;-60
2023/05/20 05:34:35;;;;;;;6.30;5.70;;;;;;;;;;6270906;28;20188;-60
2023/05/20 05:37:36;;;;;;;5.63;4.87;;;;;;;;;;6276923;28;20224;-60
2023/05/20 05:40:37;;;;;;;5.93;5.43;;;;;;;;;;6268756;28;20216;-60
2023/05/20 05:43:38;;;;;;;6.60;5.80;;;;;;;;;;6277050;28;20203;-61
2023/05/20 05:46:39;;;;;;;6.43;5.57;;;;;;;;;;6273900;28;20200;-61
2023/05/20 05:49:40;;;;;;;5.97;5.37;;;;;;;;;;6265176;28;20202;-60
2023/05/20 05:52:41;;;;;;;5.07;4.67;;;;;;;;;;6261480;28;20194;-60
2023/05/20 05:55:42;;;;;;;5.77;5.27;;;;;;;;;;6283993;28;20216;-60
2023/05/20 05:58:44;;;;;;;6.27;5.57;;;;;;;;;;6261620;28;20221;-60
2023/05/20 06:01:45;;;;;;;6.17;4.93;;;;;;;;;;6265324;28;20186;-61
2023/05/20 06:04:46;;;;;;;6.90;6.20;;;;;;;;;;6257195;28;20189;-60
2023/05/20 06:07:47;;;;;;;6.57;5.90;;;;;;;;;;6265827;28;20206;-60
2023/05/20 06:10:49;;;;;;;6.03;5.50;;;;;;;;;;6272854;28;20211;-60
2023/05/20 06:13:50;;;;;;;6.17;5.67;;;;;;;;;;6287750;28;20186;-60
2023/05/20 06:16:51;;;;;;;6.93;6.33;;;;;;;;;;6260562;28;20284;-60
2023/05/20 06:19:52;;;;;;;5.80;5.27;;;;;;;;;;6270320;28;20260;-60
2023/05/20 06:22:53;;;;;;;6.20;5.60;;;;;;;;;;6260881;28;20295;-60
2023/05/20 06:25:57;;;;;;;5.43;4.93;;;;;;;;;;6285121;28;20189;-60
2023/05/20 06:28:58;;;;;;;6.93;6.33;;;;;;;;;;6291027;28;20195;-61
2023/05/20 06:32:00;;;;;;;9.33;6.53;;;;;;;;;;6264494;28;20204;-61
2023/05/20 06:35:01;;;;;;;6.80;6.10;;;;;;;;;;6283731;28;20214;-60
2023/05/20 06:38:02;;;;;;;5.97;5.37;;;;;;;;;;6282524;28;20236;-61
2023/05/20 06:41:03;;;;;;;5.90;5.30;;;;;;;;;;6293049;28;20196;-61
2023/05/20 06:44:04;;;;;;;6.43;5.83;;;;;;;;;;6308068;28;20181;-61
2023/05/20 06:47:05;;;;;;;6.07;5.57;;;;;;;;;;6267534;28;20252;-61
2023/05/20 06:50:06;;;;;;;5.80;5.27;;;;;;;;;;6303725;28;20200;-60
2023/05/20 06:53:08;;;;;;;6.97;6.27;;;;;;;;;;6278080;28;20185;-60
2023/05/20 06:56:09;;;;;;;5.87;5.27;;;;;;;;;;6256571;28;20217;-60
2023/05/20 06:59:10;;;;;;;6.13;5.60;;;;;;;;;;6258030;28;20190;-60
2023/05/20 07:02:11;;;;;;;5.63;5.13;;;;;;;;;;6267943;28;20186;-60
2023/05/20 07:05:12;;;;;;;5.50;5.00;;;;;;;;;;6264636;28;20189;-61
2023/05/20 07:08:13;;;;;;;6.00;5.33;;;;;;;;;;6283194;28;20195;-61
2023/05/20 07:11:14;;;;;;;8.23;6.27;;;;;;;;;;6258846;28;20246;-59
2023/05/20 07:14:15;;;;;;;6.57;5.50;;;;;;;;;;6257779;28;20190;-60
2023/05/20 07:17:16;;;;;;;5.90;5.40;;;;;;;;;;6285020;28;20225;-60
2023/05/20 07:20:17;;;;;;;5.67;5.17;;;;;;;;;;6260088;28;20190;-61
2023/05/20 07:23:18;;;;;;;5.90;5.47;;;;;;;;;;6264847;28;20196;-61
2023/05/20 07:26:20;;;;;;;6.73;6.13;;;;;;;;;;6283647;28;20216;-61
2023/05/20 07:29:21;;;;;;;6.00;5.43;;;;;;;;;;6262603;28;20233;-60
2023/05/20 07:32:22;;;;;;;6.20;5.43;;;;;;;;;;6271774;28;20221;-60
2023/05/20 07:35:23;;;;;;;5.33;4.83;;;;;;;;;;6261427;28;20277;-60
2023/05/20 07:38:24;;;;;;;5.47;4.97;;;;;;;;;;6288680;28;20240;-60
2023/05/20 07:41:25;;;;;;;5.80;5.37;;;;;;;;;;6262699;28;20201;-61
2023/05/20 07:44:26;;;;;;;5.00;4.60;;;;;;;;;;6272310;28;20189;-60
2023/05/20 07:47:27;;;;;;;5.90;5.40;;;;;;;;;;6253495;28;20235;-61
2023/05/20 07:50:29;;;;;;;7.97;5.70;;;;;;;;;;6293528;28;20189;-61
2023/05/20 07:53:30;;;;;;;6.30;4.57;;;;;;;;;;6277235;28;20194;-60
2023/05/20 07:56:32;;;;;;;6.23;5.70;;;;;;;;;;6243610;28;20221;-61
2023/05/20 07:59:33;;;;;;;6.00;5.50;;;;;;;;;;6293780;28;20185;-61
2023/05/20 08:02:34;;;;;;;5.93;5.43;;;;;;;;;;6279385;28;20212;-61
2023/05/20 08:05:38;;;;;;;5.80;4.70;;;;;;;;;;6275821;28;20197;-61
2023/05/20 08:08:41;;;;;;;5.57;5.07;;;;;;;;;;6260107;28;20260;-60
2023/05/20 08:11:43;;;;;;;5.73;5.23;;;;;;;;;;6282438;28;20198;-60
2023/05/20 08:14:44;;;;;;;7.13;5.23;;;;;;;;;;6254662;28;20220;-61
2023/05/20 08:17:45;;;;;;;5.83;5.33;;;;;;;;;;6266248;28;20295;-60
2023/05/20 08:20:46;;;;;;;6.37;4.90;;;;;;;;;;6266708;28;20189;-61
2023/05/20 08:23:47;;;;;;;6.13;5.63;;;;;;;;;;6264160;28;20218;-61
2023/05/20 08:26:48;;;;;;;6.00;5.17;;;;;;;;;;6278169;28;20212;-61
2023/05/20 08:29:49;;;;;;;5.73;5.13;;;;;;;;;;6267042;28;20193;-61
2023/05/20 08:32:50;;;;;;;5.57;4.73;;;;;;;;;;6265734;28;20196;-60
2023/05/20 08:35:51;;;;;;;6.03;5.47;;;;;;;;;;6276059;28;20221;-61
2023/05/20 08:38:52;;;;;;;6.57;5.97;;;;;;;;;;6270558;28;20228;-60
2023/05/20 08:41:53;;;;;;;6.23;5.60;;;;;;;;;;6281403;28;20215;-61
2023/05/20 08:44:55;;;;;;;6.67;6.17;;;;;;;;;;6283107;28;20186;-61
2023/05/20 08:47:57;;;;;;;8.17;6.33;;;;;;;;;;6278034;28;20193;-61
2023/05/20 08:50:58;;;;;;;6.23;5.63;;;;;;;;;;6270086;28;20200;-61
2023/05/20 08:54:00;;;;;;;8.20;6.00;;;;;;;;;;6276499;28;20219;-61
2023/05/20 08:57:01;;;;;;;6.57;5.83;;;;;;;;;;6285770;28;20208;-61
2023/05/20 09:00:08;;;;;;;6.23;5.63;;;;;;;;;;6282982;28;20189;-61
2023/05/20 09:03:09;;;;;;;7.07;6.00;;;;;;;;;;6266325;28;20292;-61
2023/05/20 09:06:11;;;;;;;6.60;6.00;;;;;;;;;;6263437;28;20278;-61
2023/05/20 09:09:12;;;;;;;6.20;5.60;;;;;;;;;;6260499;28;20193;-61
2023/05/20 09:12:13;;;;;;;7.17;5.97;;;;;;;;;;6258212;28;20196;-61
2023/05/20 09:15:14;;;;;;;6.47;5.87;;;;;;;;;;6284012;28;20300;-61
2023/05/20 09:18:16;;;;;;;6.00;5.40;;;;;;;;;;6287713;28;20215;-60
2023/05/20 09:21:17;;;;;;;7.90;6.47;;;;;;;;;;6277602;28;20177;-60
2023/05/20 09:24:25;;;;;;;6.73;6.23;;;;;;;;;;6266659;28;20223;-60
2023/05/20 09:27:26;;;;;;;6.40;5.90;;;;;;;;;;6276544;28;20232;-60
2023/05/20 09:30:27;;;;;;;6.73;6.13;;;;;;;;;;6278727;28;20202;-60
2023/05/20 09:33:29;;;;;;;6.33;5.73;;;;;;;;;;6282236;28;20297;-61
2023/05/20 09:36:30;;;;;;;6.70;6.00;;;;;;;;;;6270968;28;20259;-60
2023/05/20 09:39:33;;;;;;;6.30;5.70;;;;;;;;;;6263502;28;20260;-61
2023/05/20 09:42:34;;;;;;;7.00;6.40;;;;;;;;;;6287213;28;20190;-60
2023/05/20 09:45:35;;;;;;;6.73;6.13;;;;;;;;;;6280324;28;20224;-60
2023/05/20 09:48:36;;;;;;;8.20;6.33;;;;;;;;;;6277873;28;20284;-60
2023/05/20 09:51:38;;;;;;;7.10;6.40;;;;;;;;;;6262256;28;20336;-60
2023/05/20 09:54:40;;;;;;;6.77;6.17;;;;;;;;;;6288168;28;20280;-60
2023/05/20 09:57:41;;;;;;;6.20;5.60;;;;;;;;;;6251960;28;20194;-60
2023/05/20 10:00:42;;;;;;;7.97;5.57;;;;;;;;;;6254662;28;20197;-60
2023/05/20 10:03:44;;;;;;;6.30;5.80;;;;;;;;;;6267604;28;20193;-60
2023/05/20 10:07:00;;;;;;;6.83;6.10;;;;;;;;;;6275462;28;20200;-60
2023/05/20 10:10:14;;;;;;;9.57;5.80;;;;;;;;;;6275614;28;20194;-60
2023/05/20 10:13:37;;;;;;;9.43;6.47;;;;;;;;;;6286708;28;20224;-60
2023/05/20 10:16:45;;;;;;;5.73;5.23;;;;;;;;;;6270455;28;20218;-60
2023/05/20 10:19:46;;;;;;;6.17;5.60;;;;;;;;;;6286003;28;20200;-60
2023/05/20 10:22:56;;;;;;;6.30;5.80;;;;;;;;;;6284227;28;20246;-60
2023/05/20 10:25:57;;;;;;;6.77;5.93;;;;;;;;;;6285047;28;20232;-60
2023/05/20 10:28:58;;;;;;;6.27;5.67;;;24.80;47.20;;;;;;6288639;28;20267;-59
2023/05/20 10:32:00;;;;;;;6.73;6.13;;;;;;;;;;6252110;28;20209;-59
2023/05/20 10:35:08;;;;;;;7.47;5.97;;;25.20;49.90;;;;;;6263049;28;20283;-59
2023/05/20 10:38:11;;;;;;;6.13;5.53;;;25.60;49.20;;;;;;6305891;28;20251;-60
2023/05/20 10:41:12;;;;;;;6.03;5.40;;;;;;;;;;6273093;28;20186;-59
2023/05/20 10:44:13;;;;;;;7.07;5.63;;;;;;;;;;6270332;28;20194;-59
2023/05/20 10:47:15;;;;;;;7.63;6.13;;;;;;;;;;6259762;28;20228;-59
2023/05/20 10:50:28;;;;;;;6.43;5.30;;;;;;;;;;6282906;28;20189;-61
2023/05/20 10:53:30;;;;;;;7.77;6.17;;;;;;;;;;6292475;28;20186;-60
2023/05/20 10:56:31;;;;;;;9.60;6.17;;;;;;;;;;6273062;28;20244;-59
2023/05/20 10:59:32;;;;;;;6.73;6.03;;;;;;;;;;6267768;28;20193;-60
2023/05/20 11:02:33;;;;;;;11.43;6.33;;;;;;;;;;6265852;28;20192;-59
2023/05/20 11:05:35;;;;;;;8.83;6.80;;;;;;;;;;6277304;28;20194;-59
2023/05/20 11:08:36;;;;;;;6.27;5.67;;;;;;;;;;6277747;28;20185;-59
2023/05/20 11:11:37;;;;;;;6.37;5.77;;;;;;;;;;6260181;28;20223;-59
2023/05/20 11:14:38;;;;;;;6.20;5.60;;;;;;;;;;6278622;28;20272;-60
2023/05/20 11:17:50;;;;;;;6.37;5.80;;;;;;;;;;6267016;28;20222;-59
2023/05/20 11:20:53;;;;;;;6.30;5.70;;;;;;;;;;6285531;28;20182;-59
2023/05/20 11:23:54;;;;;;;6.00;5.50;;;;;;;;;;6280727;28;20319;-59
2023/05/20 11:26:56;;;;;;;7.13;6.43;;;;;;;;;;6260556;28;20197;-59
2023/05/20 11:29:57;;;;;;;6.87;5.77;;;;;;;;;;6267161;28;20225;-59
2023/05/20 11:32:58;;;;;;;6.60;6.00;;;;;;;;;;6260372;28;20224;-60
2023/05/20 11:35:59;;;;;;;8.10;6.57;;;;;;;;;;6281656;28;20264;-59
2023/05/20 11:39:00;;;;;;;7.07;6.37;;;;;;;;;;6276117;28;20246;-57
2023/05/20 11:42:02;;;;;;;9.03;6.73;;;;;;;;;;6289302;28;20184;-60
2023/05/20 11:45:03;;;;;;;11.43;6.93;;;;;;;;;;6280841;28;20247;-59
2023/05/20 11:48:05;;;;;;;6.77;6.10;;;;;;;;;;6261436;28;20198;-59
2023/05/20 11:51:08;;;;;;;6.90;6.30;;;;;;;;;;6297618;28;20193;-59
2023/05/20 11:54:09;;;;;;;6.80;6.13;;;;;;;;;;6280746;28;20331;-59
2023/05/20 11:57:13;;;;;;;8.63;6.70;;;;;;;;;;6274779;28;20209;-59
2023/05/20 12:00:14;;;;;;;6.10;5.60;;;;;;;;;;6282039;28;20189;-60
2023/05/20 12:03:16;;;;;;;7.83;5.87;;;;;;;;;;6257282;28;20200;-60
2023/05/20 12:06:17;;;;;;;7.43;5.90;;;;;;;;;;6267974;28;20267;-60
2023/05/20 12:09:18;;;;;;;6.67;5.60;;;;;;;;;;6271706;28;20188;-58
2023/05/20 12:12:20;;;;;;;6.10;5.50;;;;;;;;;;6291004;28;20185;-59
2023/05/20 12:15:21;;;;;;;7.33;5.20;;;;;;;;;;6262073;28;20220;-59
2023/05/20 12:18:22;;;;;;;5.90;5.40;;;;;;;;;;6260649;28;20197;-60
2023/05/20 12:21:23;;;;;;;5.70;5.20;;;;;;;;;;6275833;28;20189;-60
2023/05/20 12:24:24;;;;;;;6.20;5.70;;;;;;;;;;6290996;28;20185;-60
2023/05/20 12:27:25;;;;;;;6.10;5.50;;;;;;;;;;6271561;28;20194;-66
2023/05/20 12:30:26;;;;;;;6.00;5.50;;;;;;;;;;6289181;28;20255;-65
2023/05/20 12:33:27;;;;;;;6.50;5.90;;;;;;;;;;6299677;28;20196;-67
2023/05/20 12:36:28;;;;;;;6.17;5.67;;;;;;;;;;6262660;28;20224;-66
2023/05/20 12:39:29;;;;;;;5.83;5.33;;;;;;;;;;6263395;28;20229;-66
2023/05/20 12:42:30;;;;;;;6.10;5.60;;;;;;;;;;6263360;28;20193;-67
2023/05/20 12:45:31;;;;;;;7.33;5.70;;;;;;;;;;6285293;28;20203;-67
2023/05/20 12:48:33;;;;;;;6.77;6.17;;;;;;;;;;6298294;28;20216;-60
2023/05/20 12:51:34;;;;;;;6.83;5.47;;;;;;;;;;6271565;28;20203;-60
2023/05/20 12:54:35;;;;;;;5.70;5.30;;;;;;;;;;6289797;28;20193;-59
2023/05/20 12:57:36;;;;;;;5.70;5.13;;;;;;;;;;6271409;28;20196;-59
2023/05/20 13:00:37;;;;;;;6.23;5.73;;;;;;;;;;6265833;28;20197;-59
2023/05/20 13:03:38;;;;;;;6.23;5.63;;;;;;;;;;6262812;28;20199;-60
2023/05/20 13:06:39;;;;;;;6.17;5.67;;;;;;;;;;6260179;28;20589;-60
2023/05/20 13:09:40;;;;;;;5.73;5.23;;;;;;;;;;6273101;28;20283;-59
2023/05/20 13:12:44;;;;;;;5.87;5.40;;;;;;;;;;6258130;28;20193;-59
2023/05/20 13:15:45;;;;;;;6.23;5.70;;;;;;;;;;6269976;28;20239;-59
2023/05/20 13:18:47;;;;;;;5.90;5.40;;;;;;;;;;6264697;28;20198;-59
2023/05/20 13:21:49;;;;;;;5.97;5.47;;;;;;;;;;6290441;28;20193;-59
2023/05/20 13:24:50;;;;;;;6.47;5.80;;;;;;;;;;6275775;28;20280;-59
2023/05/20 13:27:51;;;;;;;5.70;5.00;;;;;;;;;;6253180;28;20205;-59
2023/05/20 13:30:52;;;;;;;5.67;5.17;;;;;;;;;;6299746;28;20189;-59
2023/05/20 13:33:54;;;;;;;8.10;5.20;;;;;;;;;;6298151;28;20260;-67
2023/05/20 13:36:55;;;;;;;5.77;5.27;;;;;;;;;;6256102;28;20352;-67
2023/05/20 13:39:56;;;;;;;5.77;5.17;;;;;;;;;;6296375;28;20239;-66
2023/05/20 13:42:57;;;;;;;5.80;5.30;;;;;;;;;;6262118;28;20185;-66
2023/05/20 13:45:58;;;;;;;6.40;5.80;;;;;;;;;;6272237;28;20196;-63
2023/05/20 13:48:59;;;;;;;5.20;4.80;;;;;;;;;;6258459;28;20201;-63
2023/05/20 13:52:00;;;;;;;5.93;5.30;;;;;;;;;;6281868;28;20204;-65
2023/05/20 13:55:01;;;;;;;9.73;6.47;;;;;;;;;;6264174;28;20225;-65
2023/05/20 13:58:04;;;;;;;8.00;5.90;;;;;;;;;;6259453;28;20189;-65
2023/05/20 14:01:05;;;;;;;6.77;6.07;;;;;;;;;;6289281;28;20215;-64
2023/05/20 14:04:06;;;;;;;6.57;5.87;;;;;;;;;;6271456;28;20192;-64
2023/05/20 14:07:07;;;;;;;6.20;5.67;;;;;;;;;;6284753;28;20205;-64
2023/05/20 14:10:08;;;;;;;16.10;7.40;;;;;;;;;;6284053;28;20222;-64
